createdAt,value
2018-08-09T00:04:41.513Z,20.20
2018-08-09T00:09:46.356Z,20.20
2018-08-09T00:14:51.056Z,20.20
2018-08-09T00:19:55.799Z,20.30
2018-08-09T00:25:00.567Z,20.40
2018-08-09T00:30:06.447Z,20.50
2018-08-09T00:35:11.234Z,20.50
2018-08-09T00:40:16.177Z,20.50
2018-08-09T00:45:21.014Z,20.50
2018-08-09T00:50:25.830Z,20.50
2018-08-09T00:55:30.585Z,20.40
2018-08-09T01:00:36.633Z,20.40
2018-08-09T01:05:41.291Z,20.50
2018-08-09T01:10:45.988Z,20.50
2018-08-09T01:15:50.801Z,20.50
2018-08-09T01:20:55.684Z,20.40
2018-08-09T01:26:00.416Z,20.30
2018-08-09T01:31:05.359Z,20.10
2018-08-09T01:36:10.106Z,19.80
2018-08-09T01:41:14.843Z,19.60
2018-08-09T01:46:19.543Z,19.50
2018-08-09T01:51:25.439Z,19.40
2018-08-09T01:56:30.264Z,19.30
2018-08-09T02:01:35.242Z,19.20
2018-08-09T02:06:40.296Z,19.00
2018-08-09T02:11:45.018Z,18.90
2018-08-09T02:16:50.042Z,18.80
2018-08-09T02:21:54.884Z,18.80
2018-08-09T02:27:00.680Z,18.80
2018-08-09T02:32:05.282Z,18.60
2018-08-09T02:37:16.912Z,18.60
2018-08-09T02:42:21.597Z,18.60
2018-08-09T02:47:26.213Z,18.60
2018-08-09T02:52:31.684Z,18.60
2018-08-09T02:57:36.673Z,18.70
2018-08-09T03:02:42.742Z,18.50
2018-08-09T03:07:47.512Z,18.60
2018-08-09T03:12:52.382Z,18.60
2018-08-09T03:17:57.335Z,18.40
2018-08-09T03:23:01.932Z,18.30
2018-08-09T03:28:06.753Z,18.40
2018-08-09T03:33:12.293Z,18.40
2018-08-09T03:38:17.261Z,18.40
2018-08-09T03:43:22.233Z,18.50
2018-08-09T03:48:26.928Z,18.50
2018-08-09T03:53:31.656Z,18.30
2018-08-09T03:58:36.417Z,18.20
2018-08-09T04:03:41.185Z,18.00
2018-08-09T04:08:46.455Z,18.00
2018-08-09T04:13:51.089Z,18.00
2018-08-09T04:18:55.789Z,18.00
2018-08-09T04:24:00.523Z,18.10
2018-08-09T04:29:05.475Z,18.10
2018-08-09T04:34:10.324Z,18.00
2018-08-09T04:39:15.239Z,18.00
2018-08-09T04:44:20.102Z,18.10
2018-08-09T04:49:24.992Z,18.40
2018-08-09T04:54:29.623Z,18.70
2018-08-09T04:59:34.396Z,19.10
2018-08-09T05:04:39.121Z,19.30
2018-08-09T05:09:44.057Z,19.50
2018-08-09T05:14:49.032Z,19.70
2018-08-09T05:19:53.854Z,19.80
2018-08-09T05:24:58.458Z,19.90
2018-08-09T05:30:03.261Z,20.30
2018-08-09T05:35:08.179Z,20.50
2018-08-09T05:40:13.211Z,20.60
2018-08-09T05:45:18.070Z,21.00
2018-08-09T05:50:22.731Z,21.20
2018-08-09T05:55:27.291Z,21.50
2018-08-09T06:00:32.022Z,21.80
2018-08-09T06:05:36.821Z,22.10
2018-08-09T06:10:42.066Z,22.40
2018-08-09T06:15:46.891Z,22.70
2018-08-09T06:20:51.521Z,22.80
2018-08-09T06:25:56.634Z,22.70
2018-08-09T06:31:02.011Z,22.50
2018-08-09T06:36:06.933Z,22.40
2018-08-09T06:41:11.806Z,22.30
2018-08-09T06:46:16.734Z,22.30
2018-08-09T06:51:21.330Z,22.50
2018-08-09T06:56:26.263Z,22.50
2018-08-09T07:01:31.023Z,22.70
2018-08-09T07:06:35.970Z,22.90
2018-08-09T07:11:40.498Z,22.80
2018-08-09T07:16:45.243Z,22.80
2018-08-09T07:21:49.956Z,22.90
2018-08-09T07:26:54.716Z,22.80
2018-08-09T07:32:00.773Z,22.60
2018-08-09T07:37:07.159Z,22.80
2018-08-09T07:42:12.003Z,22.90
2018-08-09T07:47:17.444Z,22.90
2018-08-09T07:52:23.059Z,23.00
2018-08-09T07:57:27.847Z,23.10
2018-08-09T08:02:32.557Z,23.00
2018-08-09T08:07:37.778Z,22.80
2018-08-09T08:12:42.434Z,23.00
2018-08-09T08:17:47.295Z,22.80
2018-08-09T08:22:52.049Z,23.00
2018-08-09T08:27:56.838Z,23.00
2018-08-09T08:33:01.584Z,23.10
2018-08-09T08:38:06.958Z,23.40
2018-08-09T08:43:12.323Z,24.00
2018-08-09T08:48:17.359Z,24.40
2018-08-09T08:53:22.324Z,25.00
2018-08-09T08:58:27.234Z,25.00
2018-08-09T09:03:31.832Z,24.80
2018-08-09T09:08:36.792Z,25.30
2018-08-09T09:13:41.618Z,26.00
2018-08-09T09:18:46.471Z,26.10
2018-08-09T09:23:52.447Z,26.30
2018-08-09T09:28:57.297Z,26.50
2018-08-09T09:34:02.136Z,26.70
2018-08-09T09:39:09.344Z,26.40
2018-08-09T09:44:14.253Z,26.60
2018-08-09T09:49:19.027Z,27.00
2018-08-09T09:54:23.814Z,27.40
2018-08-09T09:59:28.778Z,27.60
2018-08-09T10:04:33.349Z,27.80
2018-08-09T10:09:38.075Z,28.20
2018-08-09T10:14:43.055Z,28.30
2018-08-09T10:19:47.876Z,28.80
2018-08-09T10:24:52.542Z,29.00
2018-08-09T10:29:57.499Z,29.50
2018-08-09T10:35:02.163Z,29.40
2018-08-09T10:40:07.152Z,30.00
2018-08-09T10:45:12.907Z,30.30
2018-08-09T10:50:17.672Z,30.70
2018-08-09T10:55:22.395Z,30.40
2018-08-09T11:00:27.363Z,30.20
2018-08-09T11:05:32.037Z,30.40
2018-08-09T11:10:36.942Z,29.80
2018-08-09T11:15:41.448Z,30.00
2018-08-09T11:20:46.066Z,29.90
2018-08-09T11:25:51.546Z,30.50
2018-08-09T11:30:57.814Z,31.30
2018-08-09T11:36:02.631Z,32.20
2018-08-09T11:41:07.430Z,32.70
2018-08-09T11:46:12.130Z,34.30
2018-08-09T11:51:16.849Z,36.10
2018-08-09T11:56:21.505Z,36.60
2018-08-09T12:01:26.556Z,36.40
2018-08-09T12:06:31.368Z,38.40
2018-08-09T12:11:36.530Z,40.20
2018-08-09T12:16:41.293Z,40.30
2018-08-09T12:21:46.929Z,39.30
2018-08-09T12:26:51.807Z,39.60
2018-08-09T12:31:56.592Z,39.50
2018-08-09T12:37:01.858Z,38.10
2018-08-09T12:42:06.824Z,37.70
2018-08-09T12:47:11.522Z,37.00
2018-08-09T12:52:16.147Z,37.70
2018-08-09T12:57:20.788Z,38.30
2018-08-09T13:02:25.540Z,38.40
2018-08-09T13:07:30.387Z,38.80
2018-08-09T13:12:35.311Z,39.60
2018-08-09T13:17:40.327Z,41.30
2018-08-09T13:22:46.196Z,41.30
2018-08-09T13:27:51.033Z,36.30
2018-08-09T13:32:55.726Z,33.80
2018-08-09T13:38:00.527Z,32.60
2018-08-09T13:43:06.316Z,31.60
2018-08-09T13:48:11.526Z,31.00
2018-08-09T13:53:17.175Z,32.20
2018-08-09T13:58:22.079Z,33.80
2018-08-09T14:03:27.484Z,35.00
2018-08-09T14:08:32.300Z,31.90
2018-08-09T14:13:37.265Z,30.40
2018-08-09T14:18:41.977Z,32.40
2018-08-09T14:23:46.956Z,32.80
2018-08-09T14:28:51.879Z,34.70
2018-08-09T14:33:57.330Z,34.20
2018-08-09T14:39:02.054Z,34.90
2018-08-09T14:44:07.348Z,36.40
2018-08-09T14:49:13.077Z,35.60
2018-08-09T14:54:17.932Z,33.80
2018-08-09T14:59:23.358Z,32.30
2018-08-09T15:04:28.343Z,31.30
2018-08-09T15:09:33.347Z,31.00
2018-08-09T15:14:38.524Z,30.30
2018-08-09T15:19:43.393Z,29.50
2018-08-09T15:24:48.003Z,29.40
2018-08-09T15:29:52.649Z,29.20
2018-08-09T15:34:57.474Z,29.60
2018-08-09T15:40:02.212Z,29.10
2018-08-09T15:45:08.271Z,28.40
2018-08-09T15:50:16.376Z,27.80
2018-08-09T15:55:21.060Z,26.00
2018-08-09T16:00:25.804Z,24.60
2018-08-09T16:05:30.988Z,24.40
2018-08-09T16:10:35.821Z,24.70
2018-08-09T16:15:41.146Z,24.90
2018-08-09T16:20:45.896Z,24.70
2018-08-09T16:25:50.593Z,23.60
2018-08-09T16:30:55.486Z,23.50
2018-08-09T16:36:00.456Z,23.50
2018-08-09T16:41:05.159Z,23.30
2018-08-09T16:46:09.882Z,23.20
2018-08-09T16:51:14.649Z,23.10
2018-08-09T16:56:19.472Z,23.00
2018-08-09T17:01:24.182Z,22.80
2018-08-09T17:06:29.050Z,22.90
2018-08-09T17:11:34.651Z,22.90
2018-08-09T17:16:39.570Z,22.50
2018-08-09T17:21:44.485Z,22.20
2018-08-09T17:26:49.923Z,22.10
2018-08-09T17:31:55.280Z,21.70
2018-08-09T17:37:00.043Z,21.40
2018-08-09T17:42:05.023Z,21.10
2018-08-09T17:47:09.934Z,20.90
2018-08-09T17:52:14.867Z,20.70
2018-08-09T17:57:19.901Z,20.60
2018-08-09T18:02:24.855Z,20.10
2018-08-09T18:07:30.166Z,19.60
2018-08-09T18:12:34.899Z,19.60
2018-08-09T18:17:39.664Z,19.70
2018-08-09T18:22:45.212Z,19.60
2018-08-09T18:27:50.145Z,19.60
2018-08-09T18:32:54.983Z,19.70
2018-08-09T18:37:59.847Z,19.90
2018-08-09T18:43:05.928Z,19.80
2018-08-09T18:48:10.811Z,19.80
2018-08-09T18:53:15.708Z,19.90
2018-08-09T18:58:20.580Z,19.80
2018-08-09T19:03:25.418Z,19.70
2018-08-09T19:08:30.140Z,19.70
2018-08-09T19:13:34.847Z,19.70
2018-08-09T19:18:39.697Z,19.70
2018-08-09T19:23:44.391Z,19.80
2018-08-09T19:28:49.331Z,19.90
2018-08-09T19:33:54.391Z,19.90
2018-08-09T19:38:59.446Z,19.90
2018-08-09T19:44:04.368Z,19.80
2018-08-09T19:49:09.215Z,19.80
2018-08-09T19:54:14.508Z,19.90
2018-08-09T19:59:19.283Z,20.00
2018-08-09T20:04:24.239Z,20.10
2018-08-09T20:09:28.935Z,20.20
2018-08-09T20:14:33.893Z,20.00
2018-08-09T20:19:38.851Z,20.00
2018-08-09T20:24:44.435Z,20.10
2018-08-09T20:29:49.424Z,20.10
2018-08-09T20:34:54.183Z,20.00
2018-08-09T20:39:59.003Z,20.00
2018-08-09T20:45:05.004Z,19.60
2018-08-09T20:50:13.268Z,19.40
2018-08-09T20:55:17.935Z,19.30
2018-08-09T21:00:27.442Z,19.40
2018-08-09T21:05:33.587Z,19.40
2018-08-09T21:10:38.905Z,19.40
2018-08-09T21:15:44.669Z,19.50
2018-08-09T21:20:49.519Z,19.50
2018-08-09T21:25:54.749Z,19.50
2018-08-09T21:30:59.413Z,19.50
2018-08-09T21:36:04.115Z,19.40
2018-08-09T21:41:08.952Z,19.40
2018-08-09T21:46:13.625Z,19.20
2018-08-09T21:51:18.337Z,19.10
2018-08-09T21:56:23.163Z,19.00
2018-08-09T22:01:28.386Z,19.00
2018-08-09T22:06:38.406Z,19.00
2018-08-09T22:11:48.267Z,19.00
2018-08-09T22:16:58.732Z,18.90
2018-08-09T22:22:08.644Z,18.90
2018-08-09T22:27:13.292Z,19.00
2018-08-09T22:32:18.956Z,19.40
2018-08-09T22:37:23.886Z,19.60
2018-08-09T22:42:28.659Z,19.60
2018-08-09T22:47:33.355Z,19.60
2018-08-09T22:52:38.200Z,19.70
2018-08-09T22:57:43.755Z,19.80
2018-08-09T23:02:48.791Z,19.80
2018-08-09T23:07:53.470Z,19.90
2018-08-09T23:12:58.143Z,19.90
2018-08-09T23:18:03.299Z,19.90
2018-08-09T23:23:08.250Z,19.90
2018-08-09T23:28:13.108Z,19.90
2018-08-09T23:33:21.344Z,19.80
2018-08-09T23:38:26.285Z,19.80
2018-08-09T23:43:31.510Z,19.70
2018-08-09T23:48:36.621Z,19.70
2018-08-09T23:53:41.582Z,19.60
2018-08-09T23:58:46.421Z,19.60
